Time;durP1;ratioP1;P1;durP2;ratioP2;P2;SDS_P1;SDS_P2;PMS_P1;PMS_P2;Temp;Humidity;BMP_temperature;BMP_pressure;BME280_temperature;BME280_humidity;BME280_pressure;Samples;Min_cycle;Max_cycle;Signal;HPM_P1;HPM_P2
2022/09/02 00:00:46;;;;;;;15.38;9.43;;;12.20;99.90;;;;;;5045511;28;20460;-67
2022/09/02 00:03:12;;;;;;;18.98;10.38;;;12.20;99.90;;;;;;5047519;28;20029;-68
2022/09/02 00:05:38;;;;;;;16.63;10.48;;;12.10;99.90;;;;;;5052929;28;20220;-69
2022/09/02 00:08:05;;;;;;;14.88;9.75;;;12.10;99.90;;;;;;5044230;28;20021;-68
2022/09/02 00:10:33;;;;;;;15.95;9.90;;;12.00;99.90;;;;;;5051900;28;20063;-69
2022/09/02 00:12:59;;;;;;;17.95;9.82;;;12.10;99.90;;;;;;5043212;28;20588;-68
2022/09/02 00:15:24;;;;;;;15.90;9.70;;;12.10;99.90;;;;;;5044373;28;20486;-67
2022/09/02 00:17:51;;;;;;;17.10;9.30;;;12.10;99.90;;;;;;5049107;28;20671;-68
2022/09/02 00:20:17;;;;;;;14.50;8.77;;;12.20;99.90;;;;;;5043317;28;20045;-68
2022/09/02 00:22:43;;;;;;;13.50;8.48;;;12.20;99.90;;;;;;5040316;28;20509;-73
2022/09/02 00:25:10;;;;;;;13.70;8.57;;;12.30;99.90;;;;;;5050849;28;20040;-67
2022/09/02 00:27:36;;;;;;;15.82;9.63;;;12.30;99.90;;;;;;5044012;28;20051;-70
2022/09/02 00:30:02;;;;;;;13.95;8.60;;;12.10;99.90;;;;;;5034449;28;20040;-66
2022/09/02 00:32:28;;;;;;;12.75;7.32;;;12.10;99.90;;;;;;5051396;28;20032;-70
2022/09/02 00:34:54;;;;;;;13.35;8.13;;;12.20;99.90;;;;;;5030511;28;20036;-68
2022/09/02 00:37:20;;;;;;;13.80;8.20;;;12.40;99.90;;;;;;5044279;28;20504;-68
2022/09/02 00:39:46;;;;;;;11.95;7.20;;;12.40;99.90;;;;;;5047900;28;20086;-71
2022/09/02 00:42:11;;;;;;;16.88;7.65;;;12.50;99.90;;;;;;5048382;28;20029;-67
2022/09/02 00:44:37;;;;;;;11.13;7.18;;;12.60;99.90;;;;;;5048679;28;20107;-70
2022/09/02 00:47:03;;;;;;;10.77;7.18;;;12.70;99.90;;;;;;5046495;28;20037;-68
2022/09/02 00:49:34;;;;;;;11.30;6.70;;;12.70;99.90;;;;;;5046450;28;20138;-68
2022/09/02 00:52:11;;;;;;;10.48;6.22;;;12.70;99.90;;;;;;5049617;28;20060;-68
2022/09/02 00:54:48;;;;;;;8.93;6.30;;;12.80;99.90;;;;;;5051745;28;20052;-67
2022/09/02 00:57:18;;;;;;;10.23;6.10;;;12.90;99.90;;;;;;5045595;28;20113;-67
2022/09/02 00:59:59;;;;;;;9.27;6.05;;;13.00;99.90;;;;;;5039855;28;20048;-71
2022/09/02 01:02:30;;;;;;;8.90;6.05;;;13.00;99.90;;;;;;5048070;28;20569;-67
2022/09/02 01:05:00;;;;;;;15.40;6.00;;;13.00;99.90;;;;;;5043792;28;20043;-70
2022/09/02 01:07:30;;;;;;;13.07;6.38;;;12.90;99.90;;;;;;5043756;28;20152;-68
2022/09/02 01:09:56;;;;;;;12.50;7.20;;;12.90;99.90;;;;;;5045125;28;20489;-68
2022/09/02 01:12:23;;;;;;;14.45;7.47;;;12.80;99.90;;;;;;5042956;28;20293;-67
2022/09/02 01:14:49;;;;;;;11.73;7.50;;;12.70;99.90;;;;;;5046242;28;20540;-72
2022/09/02 01:17:19;;;;;;;12.18;7.55;;;12.60;99.90;;;;;;5048349;28;20053;-67
2022/09/02 01:19:49;;;;;;;12.80;7.53;;;12.40;99.90;;;;;;5038485;28;20527;-68
2022/09/02 01:22:21;;;;;;;13.15;7.60;;;12.30;99.90;;;;;;5042413;28;20063;-67
2022/09/02 01:24:47;;;;;;;13.52;7.20;;;12.20;99.90;;;;;;5033137;28;20077;-74
2022/09/02 01:27:17;;;;;;;13.10;8.45;;;12.20;99.90;;;;;;5034245;28;20037;-68
2022/09/02 01:29:43;;;;;;;13.00;7.88;;;12.10;99.90;;;;;;5051903;28;20040;-68
2022/09/02 01:32:10;;;;;;;11.10;7.35;;;12.00;99.90;;;;;;5040423;28;20497;-67
2022/09/02 01:34:36;;;;;;;11.73;6.88;;;12.10;99.90;;;;;;5038315;28;20078;-69
2022/09/02 01:37:02;;;;;;;14.13;7.00;;;12.20;99.90;;;;;;5048157;28;20036;-66
2022/09/02 01:39:27;;;;;;;9.20;5.80;;;12.40;99.90;;;;;;5050340;28;20048;-69
2022/09/02 01:41:53;;;;;;;8.63;6.05;;;12.40;99.90;;;;;;5040997;28;20026;-68
2022/09/02 01:44:19;;;;;;;9.68;6.00;;;12.60;99.90;;;;;;5041575;28;20033;-68
2022/09/02 01:46:45;;;;;;;10.40;6.03;;;12.70;99.90;;;;;;5045862;28;20033;-68
2022/09/02 01:49:10;;;;;;;10.68;5.97;;;12.70;99.90;;;;;;5046844;28;20046;-67
2022/09/02 01:51:36;;;;;;;12.68;6.35;;;12.70;99.90;;;;;;5041762;28;20029;-66
2022/09/02 01:54:03;;;;;;;9.85;6.00;;;12.80;99.90;;;;;;5047981;28;20036;-68
2022/09/02 01:56:28;;;;;;;8.80;5.30;;;12.80;99.90;;;;;;5033979;28;20037;-74
2022/09/02 01:58:54;;;;;;;10.68;5.75;;;12.70;99.90;;;;;;5038759;28;20037;-70
2022/09/02 02:01:20;;;;;;;10.05;6.25;;;12.70;99.90;;;;;;5050325;28;20501;-67
2022/09/02 02:03:45;;;;;;;11.07;6.78;;;12.70;99.90;;;;;;5053649;28;20033;-68
2022/09/02 02:06:15;;;;;;;13.32;6.13;;;12.60;99.90;;;;;;5042521;28;20032;-69
2022/09/02 02:08:42;;;;;;;10.35;6.78;;;12.60;99.90;;;;;;5058945;28;20032;-68
2022/09/02 02:11:08;;;;;;;12.93;7.30;;;12.40;99.90;;;;;;5043405;28;20474;-69
2022/09/02 02:13:34;;;;;;;11.80;7.28;;;12.30;99.90;;;;;;5045452;28;20031;-67
2022/09/02 02:16:00;;;;;;;12.00;7.53;;;12.10;99.90;;;;;;5039840;28;20546;-65
2022/09/02 02:18:26;;;;;;;10.20;6.88;;;12.10;99.90;;;;;;5039417;28;20128;-68
2022/09/02 02:20:52;;;;;;;11.52;7.80;;;12.10;99.90;;;;;;5045104;28;20045;-72
2022/09/02 02:23:18;;;;;;;11.32;7.38;;;12.00;99.90;;;;;;5040857;28;20428;-69
2022/09/02 02:25:44;;;;;;;11.32;7.43;;;11.90;99.90;;;;;;5040179;28;20455;-68
2022/09/02 02:28:09;;;;;;;11.57;7.57;;;11.80;99.90;;;;;;5056351;28;20040;-68
2022/09/02 02:30:35;;;;;;;9.82;6.95;;;11.80;99.90;;;;;;5045801;28;20060;-67
2022/09/02 02:33:01;;;;;;;13.10;8.25;;;11.70;99.90;;;;;;5046235;28;20398;-70
2022/09/02 02:35:27;;;;;;;12.23;8.05;;;11.60;99.90;;;;;;5050795;28;20032;-67
2022/09/02 02:37:53;;;;;;;12.98;7.53;;;11.50;99.90;;;;;;5047783;28;20037;-75
2022/09/02 02:40:21;;;;;;;13.65;7.30;;;11.50;99.90;;;;;;5046959;28;20027;-67
2022/09/02 02:42:48;;;;;;;10.60;7.70;;;11.60;99.90;;;;;;5049460;28;20451;-69
2022/09/02 02:45:14;;;;;;;11.30;7.38;;;11.50;99.90;;;;;;5071081;28;20032;-68
2022/09/02 02:47:41;;;;;;;12.73;7.40;;;11.50;99.90;;;;;;5051473;28;20066;-68
2022/09/02 02:50:11;;;;;;;10.50;6.50;;;11.50;99.90;;;;;;5050170;28;20172;-67
2022/09/02 02:52:39;;;;;;;12.27;7.50;;;11.50;99.90;;;;;;5049971;28;20037;-68
2022/09/02 02:55:06;;;;;;;11.88;7.30;;;11.60;99.90;;;;;;5049730;28;20493;-68
2022/09/02 02:57:33;;;;;;;10.52;7.00;;;11.50;99.90;;;;;;5051794;28;20043;-72
2022/09/02 03:00:05;;;;;;;13.55;7.28;;;11.40;99.90;;;;;;5050079;28;20120;-70
2022/09/02 03:02:32;;;;;;;10.80;7.07;;;11.40;99.90;;;;;;5046129;28;20028;-72
2022/09/02 03:04:57;;;;;;;11.65;7.22;;;11.30;99.90;;;;;;5035380;28;20025;-73
2022/09/02 03:07:23;;;;;;;14.80;8.02;;;11.30;99.90;;;;;;5050142;28;20025;-68
2022/09/02 03:09:49;;;;;;;10.05;7.18;;;11.30;99.90;;;;;;5049750;28;20453;-67
2022/09/02 03:12:15;;;;;;;12.77;6.45;;;11.30;99.90;;;;;;5049400;28;20047;-67
2022/09/02 03:14:41;;;;;;;9.90;6.65;;;11.40;99.90;;;;;;5051407;28;20025;-69
2022/09/02 03:17:06;;;;;;;10.77;6.75;;;11.50;99.90;;;;;;5049350;28;20082;-68
2022/09/02 03:19:32;;;;;;;11.02;7.15;;;11.60;99.90;;;;;;5048064;28;20422;-68
2022/09/02 03:21:58;;;;;;;11.55;6.45;;;11.60;99.90;;;;;;5035904;28;20038;-74
2022/09/02 03:24:24;;;;;;;11.43;6.30;;;11.70;99.90;;;;;;5031447;28;20463;-68
2022/09/02 03:26:49;;;;;;;9.65;6.20;;;11.80;99.90;;;;;;5051093;28;20040;-66
2022/09/02 03:29:15;;;;;;;9.60;5.70;;;11.90;99.90;;;;;;5049328;28;20029;-66
2022/09/02 03:31:41;;;;;;;11.23;6.47;;;12.00;99.90;;;;;;5033411;28;20041;-69
2022/09/02 03:34:06;;;;;;;9.30;6.18;;;12.00;99.90;;;;;;5053252;28;20025;-68
2022/09/02 03:36:37;;;;;;;10.73;6.80;;;12.00;99.90;;;;;;5051568;28;20036;-68
2022/09/02 03:39:03;;;;;;;;;;;12.10;99.90;;;;;;5048167;28;20065;-68
2022/09/02 03:41:28;;;;;;;10.95;7.07;;;12.00;99.90;;;;;;5041897;28;20277;-67
2022/09/02 03:43:54;;;;;;;10.52;7.05;;;11.80;99.90;;;;;;5029924;28;20029;-71
2022/09/02 03:46:20;;;;;;;11.20;7.30;;;11.50;99.90;;;;;;5041762;28;20033;-67
2022/09/02 03:48:47;;;;;;;12.85;7.35;;;11.30;99.90;;;;;;5034696;28;20045;-67
2022/09/02 03:51:12;;;;;;;11.25;7.40;;;11.20;99.90;;;;;;5051192;28;20033;-68
2022/09/02 03:53:38;;;;;;;12.50;7.18;;;11.00;99.90;;;;;;5050426;28;20029;-71
2022/09/02 03:56:07;;;;;;;11.70;7.68;;;10.90;99.90;;;;;;5048829;28;20024;-68
2022/09/02 03:58:35;;;;;;;15.27;8.50;;;10.70;99.90;;;;;;5048392;28;20049;-70
2022/09/02 04:01:00;;;;;;;13.02;7.10;;;10.80;99.90;;;;;;5036657;28;20037;-69
2022/09/02 04:03:26;;;;;;;9.05;6.90;;;10.80;99.90;;;;;;5046089;28;20040;-69
2022/09/02 04:05:52;;;;;;;12.05;7.88;;;10.80;99.90;;;;;;5047683;28;20461;-68
2022/09/02 04:08:18;;;;;;;12.48;8.20;;;10.80;99.90;;;;;;5055476;28;20036;-72
2022/09/02 04:10:44;;;;;;;16.63;8.27;;;10.60;99.90;;;;;;5041698;28;20029;-67
2022/09/02 04:13:10;;;;;;;13.43;7.95;;;10.40;99.90;;;;;;5049699;28;20036;-68
2022/09/02 04:15:46;;;;;;;12.48;8.00;;;10.40;99.90;;;;;;5050443;28;20114;-67
2022/09/02 04:21:36;;;;;;;13.55;8.30;;;10.40;99.90;;;;;;5050213;28;20072;-68
2022/09/02 04:24:02;;;;;;;13.00;7.60;;;10.40;99.90;;;;;;5048635;28;20087;-70
2022/09/02 04:26:28;;;;;;;12.48;8.13;;;10.40;99.90;;;;;;5050419;28;20045;-68
2022/09/02 04:28:54;;;;;;;15.50;7.13;;;10.30;99.90;;;;;;5049248;28;20060;-67
2022/09/02 04:31:21;;;;;;;12.05;7.93;;;10.40;99.90;;;;;;5049299;28;20025;-67
2022/09/02 04:33:47;;;;;;;11.60;7.45;;;10.40;99.90;;;;;;5043386;28;20033;-67
2022/09/02 04:36:15;;;;;;;12.27;7.75;;;10.40;99.90;;;;;;5038871;28;20044;-69
2022/09/02 04:38:41;;;;;;;16.40;7.85;;;10.40;99.90;;;;;;5040036;28;20124;-66
2022/09/02 04:41:12;;;;;;;13.43;7.32;;;10.40;99.90;;;;;;5047445;28;20454;-68
2022/09/02 04:43:39;;;;;;;12.38;8.35;;;10.30;99.90;;;;;;5044363;28;20579;-71
2022/09/02 04:46:09;;;;;;;13.15;8.43;;;10.40;99.90;;;;;;5041229;28;20075;-68
2022/09/02 04:48:35;;;;;;;13.43;8.10;;;10.40;99.90;;;;;;5031026;28;20067;-67
2022/09/02 04:51:11;;;;;;;13.38;8.25;;;10.40;99.90;;;;;;5047406;28;20056;-73
2022/09/02 04:53:38;;;;;;;16.17;8.25;;;10.40;99.90;;;;;;5049833;28;20031;-70
2022/09/02 04:56:05;;;;;;;12.82;8.48;;;10.40;99.90;;;;;;5049018;28;20025;-69
2022/09/02 04:58:31;;;;;;;14.35;8.70;;;10.40;99.90;;;;;;5046584;28;20033;-71
2022/09/02 05:00:57;;;;;;;14.15;9.18;;;10.40;99.90;;;;;;5045054;28;20055;-67
2022/09/02 05:03:23;;;;;;;15.00;8.90;;;10.40;99.90;;;;;;5046145;28;20039;-69
2022/09/02 05:05:59;;;;;;;15.43;9.52;;;10.40;99.90;;;;;;5048329;28;20385;-68
2022/09/02 05:08:24;;;;;;;17.70;9.73;;;10.40;99.90;;;;;;5044572;28;20161;-66
2022/09/02 05:10:52;;;;;;;14.77;9.70;;;10.50;99.90;;;;;;5046743;28;20485;-68
2022/09/02 05:13:18;;;;;;;18.80;9.32;;;10.60;99.90;;;;;;5048313;28;20033;-67
2022/09/02 05:15:44;;;;;;;16.05;8.68;;;10.60;99.90;;;;;;5049167;28;20500;-68
2022/09/02 05:18:10;;;;;;;12.52;8.07;;;10.70;99.90;;;;;;5047763;28;20162;-69
2022/09/02 05:20:41;;;;;;;12.10;7.78;;;10.80;99.90;;;;;;5049316;28;20154;-70
2022/09/02 05:23:07;;;;;;;12.80;7.72;;;10.90;99.90;;;;;;5048614;28;20036;-67
2022/09/02 05:25:33;;;;;;;15.50;8.35;;;11.00;99.90;;;;;;5049497;28;20033;-69
2022/09/02 05:27:59;;;;;;;14.30;8.60;;;11.10;99.90;;;;;;5049324;28;20407;-68
2022/09/02 05:30:25;;;;;;;13.73;7.82;;;11.20;99.90;;;;;;5040670;28;20041;-68
2022/09/02 05:32:51;;;;;;;13.82;7.80;;;11.30;99.90;;;;;;5041806;28;20041;-66
2022/09/02 05:35:16;;;;;;;12.25;7.57;;;11.30;99.90;;;;;;5049918;28;20025;-69
2022/09/02 05:37:42;;;;;;;13.15;7.70;;;11.30;99.90;;;;;;5053211;28;20290;-68
2022/09/02 05:40:09;;;;;;;12.55;8.18;;;11.30;99.90;;;;;;5045275;28;20029;-69
2022/09/02 05:42:35;;;;;;;14.02;7.97;;;11.30;99.90;;;;;;5053225;28;20068;-68
2022/09/02 05:45:01;;;;;;;11.98;7.75;;;11.40;99.90;;;;;;5053387;28;20025;-69
2022/09/02 05:47:27;;;;;;;12.45;7.75;;;11.40;99.90;;;;;;5051644;28;20489;-69
2022/09/02 05:49:52;;;;;;;14.43;8.60;;;11.60;99.90;;;;;;5052758;28;20123;-67
2022/09/02 05:52:18;;;;;;;14.15;8.73;;;11.60;99.90;;;;;;5049855;28;21742;-72
2022/09/02 05:54:44;;;;;;;16.98;9.65;;;11.60;99.90;;;;;;5058328;28;20104;-68
2022/09/02 05:57:13;;;;;;;16.05;9.73;;;11.60;99.90;;;;;;5043265;28;20029;-68
2022/09/02 05:59:41;;;;;;;18.08;9.43;;;11.50;99.90;;;;;;5050142;28;20056;-66
2022/09/02 06:02:09;;;;;;;16.60;8.43;;;11.60;99.90;;;;;;5054757;28;20044;-73
2022/09/02 06:04:39;;;;;;;12.18;8.02;;;11.80;99.90;;;;;;5055443;28;20036;-68
2022/09/02 06:07:05;;;;;;;12.20;8.25;;;11.90;99.90;;;;;;5049554;28;20061;-73
2022/09/02 06:09:31;;;;;;;13.70;7.60;;;12.00;99.90;;;;;;5049936;28;20037;-68
2022/09/02 06:11:56;;;;;;;10.60;7.38;;;12.30;99.90;;;;;;5050251;28;20098;-69
2022/09/02 06:14:24;;;;;;;13.68;6.40;;;12.50;99.90;;;;;;5050726;28;20060;-66
2022/09/02 06:16:52;;;;;;;10.15;6.13;;;12.80;99.90;;;;;;5052611;28;20027;-65
2022/09/02 06:19:18;;;;;;;10.70;6.38;;;13.10;99.90;;;;;;5051606;28;20052;-69
2022/09/02 06:21:45;;;;;;;8.68;6.22;;;13.30;99.90;;;;;;5052430;28;20136;-66
2022/09/02 06:24:12;;;;;;;10.52;5.80;;;13.50;99.90;;;;;;5049011;28;20033;-69
2022/09/02 06:26:39;;;;;;;10.82;6.30;;;13.60;99.90;;;;;;5052494;28;20028;-67
2022/09/02 06:29:06;;;;;;;12.73;6.00;;;13.90;99.90;;;;;;5052353;28;20029;-71
2022/09/02 06:31:32;;;;;;;8.23;5.53;;;13.90;99.90;;;;;;5050883;28;20132;-65
2022/09/02 06:33:59;;;;;;;9.18;5.82;;;14.00;99.90;;;;;;5052115;28;20524;-68
2022/09/02 06:36:27;;;;;;;11.98;6.68;;;14.10;99.90;;;;;;5050339;28;20029;-67
2022/09/02 06:38:55;;;;;;;9.00;5.60;;;14.20;99.90;;;;;;5050537;28;20404;-67
2022/09/02 06:41:32;;;;;;;10.52;5.82;;;14.40;99.90;;;;;;5051170;28;20029;-69
2022/09/02 06:44:01;;;;;;;7.97;5.82;;;14.50;99.90;;;;;;5052451;28;20033;-69
2022/09/02 06:46:30;;;;;;;10.68;5.60;;;14.60;99.90;;;;;;5050797;28;20082;-67
2022/09/02 06:48:57;;;;;;;7.53;5.43;;;14.70;99.90;;;;;;5050969;28;20037;-68
2022/09/02 06:51:29;;;;;;;7.55;4.88;;;14.90;99.90;;;;;;5051028;28;20718;-66
2022/09/02 06:53:56;;;;;;;7.82;4.88;;;15.00;99.90;;;;;;5043214;28;20083;-65
2022/09/02 06:56:22;;;;;;;9.02;5.45;;;14.90;99.90;;;;;;5045747;28;20037;-68
2022/09/02 06:58:47;;;;;;;8.10;5.13;;;15.10;99.90;;;;;;5051133;28;20560;-66
2022/09/02 07:01:22;;;;;;;12.75;5.25;;;15.20;99.90;;;;;;5052411;28;20094;-68
2022/09/02 07:06:37;;;;;;;12.13;5.13;;;15.20;99.90;;;;;;5057991;28;20039;-66
2022/09/02 07:09:08;;;;;;;9.05;5.18;;;15.40;99.90;;;;;;5056154;28;20124;-67
2022/09/02 07:11:33;;;;;;;;;;;15.50;99.90;;;;;;5054164;28;20025;-65
2022/09/02 07:14:00;;;;;;;7.03;4.88;;;15.60;99.90;;;;;;5042609;28;20920;-65
2022/09/02 07:16:28;;;;;;;11.00;5.20;;;15.70;99.90;;;;;;5052755;28;20362;-69
2022/09/02 07:18:55;;;;;;;11.85;4.97;;;15.90;99.90;;;;;;5049796;28;21725;-62
2022/09/02 07:21:21;;;;;;;9.00;4.70;;;16.00;99.90;;;;;;5047609;28;20473;-64
2022/09/02 07:23:46;;;;;;;12.40;4.88;;;16.10;99.90;;;;;;5049107;28;20071;-62
2022/09/02 07:26:15;;;;;;;6.40;4.28;;;16.20;99.90;;;;;;5046659;28;20497;-62
2022/09/02 07:28:41;;;;;;;8.25;4.60;;;16.40;99.90;;;;;;5030632;28;20026;-62
2022/09/02 07:31:12;;;;;;;7.40;4.15;;;16.50;99.90;;;;;;5045652;28;20033;-64
2022/09/02 07:33:38;;;;;;;4.72;3.55;;;16.60;99.90;;;;;;5063610;28;20025;-63
2022/09/02 07:36:05;;;;;;;11.45;4.32;;;16.70;99.90;;;;;;5050804;28;20432;-63
2022/09/02 07:38:31;;;;;;;11.75;4.05;;;16.90;99.90;;;;;;5050396;28;20060;-64
2022/09/02 07:40:59;;;;;;;6.25;3.90;;;16.90;99.90;;;;;;5048472;28;20551;-62
2022/09/02 07:43:26;;;;;;;15.93;4.40;;;17.00;99.90;;;;;;5050294;28;20029;-63
2022/09/02 07:45:54;;;;;;;8.27;3.83;;;17.10;99.90;;;;;;5067011;28;20141;-63
2022/09/02 07:48:21;;;;;;;8.00;3.78;;;17.10;99.90;;;;;;5068704;28;20481;-63
2022/09/02 07:50:47;;;;;;;7.60;3.58;;;17.30;99.90;;;;;;5053294;28;20032;-63
2022/09/02 07:53:15;;;;;;;5.07;3.25;;;17.40;99.90;;;;;;5050092;28;20029;-64
2022/09/02 07:55:41;;;;;;;6.30;3.40;;;17.60;99.90;;;;;;5050786;28;20117;-62
2022/09/02 07:58:08;;;;;;;7.68;3.30;;;17.70;99.90;;;;;;5050315;28;20035;-63
2022/09/02 08:00:34;;;;;;;7.00;3.05;;;17.80;99.90;;;;;;5045366;28;21576;-63
2022/09/02 08:03:00;;;;;;;5.80;3.10;;;18.00;99.90;;;;;;5050798;28;20025;-63
2022/09/02 08:05:27;;;;;;;5.82;3.10;;;18.20;99.90;;;;;;5049616;28;20084;-63
2022/09/02 08:07:52;;;;;;;3.97;2.92;;;18.20;99.90;;;;;;5050670;28;20029;-63
2022/09/02 08:10:19;;;;;;;4.75;2.65;;;18.40;99.90;;;;;;5048846;28;20064;-64
2022/09/02 08:12:45;;;;;;;5.95;2.80;;;18.50;99.90;;;;;;5050561;28;20033;-63
2022/09/02 08:15:13;;;;;;;4.22;2.90;;;18.50;99.90;;;;;;5059147;28;20033;-63
2022/09/02 08:17:40;;;;;;;8.43;2.80;;;18.60;99.90;;;;;;5070090;28;20032;-63
2022/09/02 08:20:08;;;;;;;8.25;2.55;;;18.70;99.90;;;;;;5059004;28;20784;-63
2022/09/02 08:22:35;;;;;;;4.68;2.65;;;18.70;99.90;;;;;;5049693;28;20033;-63
2022/09/02 08:25:02;;;;;;;4.03;2.53;;;18.80;99.90;;;;;;5050294;28;20025;-63
2022/09/02 08:27:27;;;;;;;6.60;2.47;;;18.70;99.90;;;;;;5049354;28;20115;-63
2022/09/02 08:29:53;;;;;;;5.63;2.30;;;18.80;99.90;;;;;;5047985;28;20537;-64
2022/09/02 08:32:19;;;;;;;5.03;2.35;;;18.90;99.90;;;;;;5049382;28;20476;-63
2022/09/02 08:34:45;;;;;;;4.10;2.55;;;19.00;99.90;;;;;;5050492;28;20025;-62
2022/09/02 08:37:11;;;;;;;5.78;2.45;;;18.90;99.90;;;;;;5050136;28;20036;-63
2022/09/02 08:39:37;;;;;;;4.57;2.33;;;18.90;99.90;;;;;;5048422;28;20040;-64
2022/09/02 08:42:08;;;;;;;3.63;2.20;;;18.80;99.90;;;;;;5049311;28;20037;-63
2022/09/02 08:44:37;;;;;;;3.50;2.10;;;18.90;99.90;;;;;;5051788;28;20020;-64
2022/09/02 08:47:07;;;;;;;2.80;1.98;;;19.10;99.90;;;;;;5066353;28;20056;-63
2022/09/02 08:49:47;;;;;;;5.95;2.40;;;19.10;99.90;;;;;;5048813;28;20258;-63
2022/09/02 08:52:40;;;;;;;4.75;2.28;;;19.10;99.90;;;;;;5049770;28;20037;-63
2022/09/02 08:55:12;;;;;;;6.43;2.20;;;19.10;99.90;;;;;;5049614;28;20500;-62
2022/09/02 08:57:45;;;;;;;3.33;1.90;;;19.20;99.40;;;;;;5047151;28;20141;-61
2022/09/02 09:00:12;;;;;;;8.73;1.73;;;19.30;98.20;;;;;;5049707;28;20036;-62
2022/09/02 09:02:46;;;;;;;7.72;2.28;;;19.50;98.80;;;;;;5047277;28;20116;-63
2022/09/02 09:05:48;;;;;;;4.95;1.80;;;19.60;98.30;;;;;;5049424;28;20435;-62
2022/09/02 09:08:14;;;;;;;4.28;1.80;;;19.80;98.40;;;;;;5049490;28;20120;-62
2022/09/02 09:11:02;;;;;;;3.10;1.80;;;19.70;96.60;;;;;;5048742;28;20119;-64
2022/09/02 09:13:52;;;;;;;2.20;1.70;;;19.70;96.90;;;;;;5047640;28;20604;-62
2022/09/02 09:16:21;;;;;;;2.90;1.77;;;19.80;97.00;;;;;;5064306;28;20112;-62
2022/09/02 09:19:03;;;;;;;4.30;1.88;;;19.90;96.70;;;;;;5069301;28;20052;-62
2022/09/02 09:21:30;;;;;;;5.82;1.80;;;20.00;96.30;;;;;;5062875;28;20041;-64
2022/09/02 09:23:59;;;;;;;2.72;1.73;;;20.20;96.30;;;;;;5049099;28;20033;-63
2022/09/02 09:26:31;;;;;;;5.85;1.45;;;20.40;95.40;;;;;;5048554;28;20036;-64
2022/09/02 09:28:58;;;;;;;1.98;1.30;;;20.50;92.20;;;;;;5049510;28;20032;-65
2022/09/02 09:31:29;;;;;;;9.27;1.67;;;20.50;91.50;;;;;;5047177;28;20025;-64
2022/09/02 09:34:01;;;;;;;6.22;1.50;;;20.60;91.20;;;;;;5049501;28;20033;-64
2022/09/02 09:36:57;;;;;;;2.70;1.63;;;20.50;92.10;;;;;;5048626;28;20033;-64
2022/09/02 09:39:28;;;;;;;2.45;1.52;;;20.60;91.30;;;;;;5043267;28;20056;-63
2022/09/02 09:42:10;;;;;;;5.80;1.90;;;20.60;90.50;;;;;;5047816;28;20021;-64
2022/09/02 09:44:49;;;;;;;3.33;1.90;;;20.70;91.20;;;;;;5048460;28;20060;-62
2022/09/02 09:47:24;;;;;;;5.43;1.60;;;20.80;90.00;;;;;;5029416;28;20029;-63
2022/09/02 09:49:52;;;;;;;4.32;1.67;;;20.80;90.00;;;;;;5028768;28;20029;-64
2022/09/02 09:52:29;;;;;;;2.65;1.50;;;20.90;90.30;;;;;;5035394;28;20037;-62
2022/09/02 09:55:19;;;;;;;5.20;1.73;;;20.90;89.70;;;;;;5049213;28;20031;-64
2022/09/02 09:57:48;;;;;;;7.47;1.58;;;20.90;89.70;;;;;;5049280;28;20033;-63
2022/09/02 10:00:24;;;;;;;3.03;1.40;;;21.00;87.20;;;;;;5048952;28;20041;-63
2022/09/02 10:02:54;;;;;;;4.05;1.30;;;21.30;88.50;;;;;;5048432;28;20537;-65
2022/09/02 10:05:28;;;;;;;6.28;1.40;;;21.60;86.60;;;;;;5048500;28;20033;-62
2022/09/02 10:07:58;;;;;;;2.97;1.70;;;21.70;84.40;;;;;;5049076;28;20040;-64
2022/09/02 10:10:26;;;;;;;7.15;1.65;;;21.60;83.60;;;;;;5048311;28;20033;-63
2022/09/02 10:12:55;;;;;;;7.75;1.83;;;21.50;83.40;;;;;;5048137;28;20037;-64
2022/09/02 10:15:52;;;;;;;2.47;1.50;;;21.50;83.00;;;;;;5053104;28;20021;-65
2022/09/02 10:18:43;;;;;;;2.67;1.30;;;21.70;83.60;;;;;;5068647;28;20071;-63
2022/09/02 10:21:38;;;;;;;2.40;1.52;;;21.80;81.90;;;;;;5068663;28;20091;-63
2022/09/02 10:24:12;;;;;;;1.98;1.20;;;21.90;78.00;;;;;;5052783;28;20115;-62
2022/09/02 10:26:48;;;;;;;4.05;1.40;;;21.90;77.80;;;;;;5051941;28;20027;-63
2022/09/02 10:29:19;;;;;;;1.88;1.35;;;21.90;78.30;;;;;;5052695;28;20039;-63
2022/09/02 10:32:08;;;;;;;4.00;1.15;;;21.90;74.90;;;;;;5050129;28;20064;-61
2022/09/02 10:35:01;;;;;;;2.78;1.60;;;22.10;75.20;;;;;;5051744;28;20033;-63
2022/09/02 10:37:40;;;;;;;5.47;1.88;;;22.20;75.60;;;;;;5050879;28;20098;-62
2022/09/02 10:40:12;;;;;;;3.40;1.40;;;22.20;76.80;;;;;;5052348;28;20186;-62
2022/09/02 10:43:09;;;;;;;2.10;1.52;;;22.30;76.00;;;;;;5050543;28;20021;-64
2022/09/02 10:45:52;;;;;;;3.92;1.42;;;22.50;71.90;;;;;;5055835;28;20479;-64
2022/09/02 10:49:00;;;;;;;4.43;1.35;;;22.20;71.50;;;;;;5072047;28;20028;-65
2022/09/02 10:51:52;;;;;;;3.28;1.25;;;22.20;70.20;;;;;;5054294;28;20044;-64
2022/09/02 10:54:36;;;;;;;3.17;1.80;;;22.30;70.60;;;;;;5051748;28;20086;-65
2022/09/02 10:57:18;;;;;;;3.78;1.40;;;22.50;70.50;;;;;;5052404;28;20029;-62
2022/09/02 11:00:00;;;;;;;2.40;1.58;;;22.60;71.60;;;;;;5050337;28;20140;-64
2022/09/02 11:02:51;;;;;;;4.15;1.50;;;23.00;71.70;;;;;;5051264;28;20029;-62
2022/09/02 11:05:24;;;;;;;3.65;1.42;;;23.20;71.30;;;;;;5051903;28;20032;-63
2022/09/02 11:08:12;;;;;;;2.38;1.42;;;23.30;71.70;;;;;;5051938;28;20032;-63
2022/09/02 11:10:45;;;;;;;1.98;1.38;;;23.10;72.70;;;;;;5050149;28;20111;-64
2022/09/02 11:13:23;;;;;;;1.50;1.30;;;23.20;70.60;;;;;;5050685;28;20497;-64
2022/09/02 11:16:16;;;;;;;1.75;1.30;;;23.50;73.30;;;;;;5050338;28;20025;-62
2022/09/02 11:19:05;;;;;;;3.47;1.90;;;23.80;69.00;;;;;;5049833;28;20049;-61
2022/09/02 11:22:00;;;;;;;2.17;1.40;;;23.40;67.10;;;;;;5030740;28;20037;-62
2022/09/02 11:24:36;;;;;;;3.80;1.30;;;23.20;66.60;;;;;;5030819;28;20052;-65
2022/09/02 11:27:16;;;;;;;4.82;1.30;;;23.30;64.00;;;;;;5031542;28;20021;-64
2022/09/02 11:29:54;;;;;;;2.15;1.45;;;23.40;67.00;;;;;;5038584;28;20025;-63
2022/09/02 11:32:42;;;;;;;1.90;1.33;;;23.10;64.50;;;;;;5046261;28;20115;-63
2022/09/02 11:35:27;;;;;;;2.38;1.35;;;23.30;67.80;;;;;;5038497;28;20083;-64
2022/09/02 11:38:19;;;;;;;1.80;1.38;;;23.50;64.00;;;;;;5044461;28;20035;-62
2022/09/02 11:41:20;;;;;;;2.33;1.40;;;23.50;64.00;;;;;;5044150;28;20094;-63
2022/09/02 11:44:13;;;;;;;4.03;1.48;;;23.70;64.70;;;;;;5035514;28;20202;-61
2022/09/02 11:46:53;;;;;;;4.97;1.67;;;23.70;66.00;;;;;;5043374;28;20520;-64
2022/09/02 11:49:40;;;;;;;5.40;1.48;;;23.70;64.10;;;;;;5041578;28;20033;-62
2022/09/02 11:52:28;;;;;;;5.25;1.50;;;23.40;64.00;;;;;;5049254;28;20131;-61
2022/09/02 11:55:19;;;;;;;3.58;1.60;;;23.60;68.10;;;;;;5030988;28;20466;-61
2022/09/02 11:57:56;;;;;;;2.63;1.50;;;23.90;65.80;;;;;;5046950;28;20500;-62
2022/09/02 12:00:35;;;;;;;2.13;1.40;;;23.90;63.00;;;;;;5047609;28;20037;-64
2022/09/02 12:03:03;;;;;;;2.53;1.38;;;24.40;64.80;;;;;;5048264;28;20048;-62
2022/09/02 12:05:29;;;;;;;4.63;1.38;;;24.40;63.50;;;;;;5051309;28;20082;-64
2022/09/02 12:07:58;;;;;;;1.67;1.30;;;24.40;62.40;;;;;;5041111;28;20037;-65
2022/09/02 12:10:48;;;;;;;1.83;1.10;;;24.30;59.80;;;;;;5051688;28;20409;-65
2022/09/02 12:13:35;;;;;;;2.70;1.65;;;23.80;60.50;;;;;;5033497;28;20041;-63
2022/09/02 12:16:19;;;;;;;6.20;1.52;;;24.00;62.60;;;;;;5041011;28;20036;-62
2022/09/02 12:18:52;;;;;;;3.13;1.55;;;24.00;61.70;;;;;;5041590;28;20045;-64
2022/09/02 12:21:19;;;;;;;8.07;1.33;;;24.00;63.30;;;;;;5042553;28;21194;-62
2022/09/02 12:23:54;;;;;;;2.85;1.63;;;23.90;61.70;;;;;;5047031;28;20037;-62
2022/09/02 12:26:26;;;;;;;6.40;1.73;;;24.00;61.50;;;;;;5032402;28;20104;-62
2022/09/02 12:29:09;;;;;;;3.88;1.70;;;24.30;63.20;;;;;;5062123;28;20064;-62
2022/09/02 12:31:42;;;;;;;5.20;1.65;;;24.30;60.00;;;;;;5050115;28;20037;-63
2022/09/02 12:34:19;;;;;;;2.03;1.70;;;24.20;60.30;;;;;;5050029;28;20040;-61
2022/09/02 12:36:52;;;;;;;7.55;1.58;;;23.90;62.80;;;;;;5045619;28;20136;-63
2022/09/02 12:39:23;;;;;;;3.33;1.77;;;23.70;65.70;;;;;;5045030;28;20390;-63
2022/09/02 12:42:21;;;;;;;4.10;1.80;;;23.60;61.80;;;;;;5041464;28;20041;-63
2022/09/02 12:45:24;;;;;;;4.15;1.60;;;23.80;65.70;;;;;;5027388;28;20076;-62
2022/09/02 12:48:00;;;;;;;6.47;1.80;;;24.00;65.10;;;;;;5042501;28;20040;-63
2022/09/02 12:50:49;;;;;;;5.05;1.80;;;23.90;61.00;;;;;;5038718;28;20041;-63
2022/09/02 12:53:30;;;;;;;2.67;1.50;;;24.10;62.70;;;;;;5029987;28;20029;-62
2022/09/02 12:56:26;;;;;;;3.85;1.50;;;24.30;61.20;;;;;;5045683;28;20131;-62
2022/09/02 12:58:54;;;;;;;4.32;1.90;;;24.40;63.00;;;;;;5043143;28;20045;-63
2022/09/02 13:01:35;;;;;;;2.63;1.60;;;24.40;62.10;;;;;;5048381;28;20037;-64
2022/09/02 13:04:37;;;;;;;5.93;1.77;;;24.40;66.10;;;;;;5038647;28;20556;-65
2022/09/02 13:07:28;;;;;;;1.88;1.63;;;24.50;64.80;;;;;;5033875;28;20055;-63
2022/09/02 13:09:54;;;;;;;2.88;1.85;;;24.10;63.00;;;;;;5046234;28;20037;-62